createdAt,value
2023-05-04T00:02:03.762Z,9.39
2023-05-04T00:04:30.433Z,9.38
2023-05-04T00:06:57.095Z,9.39
2023-05-04T00:09:23.735Z,9.30
2023-05-04T00:11:50.363Z,9.37
2023-05-04T00:14:17.096Z,9.36
2023-05-04T00:16:44.331Z,9.34
2023-05-04T00:19:11.206Z,9.36
2023-05-04T00:21:38.008Z,9.35
2023-05-04T00:24:05.053Z,9.33
2023-05-04T00:26:31.675Z,9.30
2023-05-04T00:28:58.366Z,9.27
2023-05-04T00:31:25.035Z,9.20
2023-05-04T00:33:51.720Z,9.22
2023-05-04T00:36:18.895Z,9.20
2023-05-04T00:38:54.762Z,9.18
2023-05-04T00:41:22.297Z,9.21
2023-05-04T00:43:49.204Z,9.15
2023-05-04T00:46:16.045Z,9.05
2023-05-04T00:48:45.923Z,9.09
2023-05-04T00:51:14.775Z,9.00
2023-05-04T00:53:41.736Z,8.98
2023-05-04T00:56:09.049Z,8.99
2023-05-04T00:58:35.941Z,8.96
2023-05-04T01:01:04.071Z,8.96
2023-05-04T01:03:31.911Z,8.84
2023-05-04T01:06:16.295Z,8.86
2023-05-04T01:08:50.781Z,8.87
2023-05-04T01:11:32.214Z,8.82
2023-05-04T01:14:01.895Z,8.75
2023-05-04T01:16:29.643Z,8.81
2023-05-04T01:18:56.378Z,8.76
2023-05-04T01:21:23.087Z,8.74
2023-05-04T01:23:50.678Z,8.75
2023-05-04T01:26:25.354Z,8.70
2023-05-04T01:29:22.187Z,8.69
2023-05-04T01:31:50.932Z,8.64
2023-05-04T01:34:18.846Z,8.61
2023-05-04T01:36:46.267Z,8.64
2023-05-04T01:39:12.942Z,8.65
2023-05-04T01:41:39.625Z,8.66
2023-05-04T01:44:06.304Z,8.63
2023-05-04T01:46:33.072Z,8.65
2023-05-04T01:48:59.867Z,8.66
2023-05-04T01:51:26.736Z,8.65
2023-05-04T01:53:53.337Z,8.58
2023-05-04T01:56:20.504Z,8.64
2023-05-04T01:58:47.229Z,8.61
2023-05-04T02:01:13.972Z,8.62
2023-05-04T02:03:41.093Z,8.58
2023-05-04T02:06:09.702Z,8.46
2023-05-04T02:08:36.369Z,8.44
2023-05-04T02:11:03.070Z,8.44
2023-05-04T02:13:29.738Z,8.45
2023-05-04T02:15:56.414Z,8.41
2023-05-04T02:18:23.089Z,8.38
2023-05-04T02:20:49.888Z,8.40
2023-05-04T02:23:16.654Z,8.36
2023-05-04T02:25:43.363Z,8.39
2023-05-04T02:28:10.126Z,8.40
2023-05-04T02:30:37.368Z,8.40
2023-05-04T02:33:04.590Z,8.37
2023-05-04T02:35:31.429Z,8.37
2023-05-04T02:37:58.120Z,8.36
2023-05-04T02:40:25.014Z,8.38
2023-05-04T02:42:51.943Z,8.34
2023-05-04T02:45:18.726Z,8.32
2023-05-04T02:47:45.525Z,8.21
2023-05-04T02:50:12.203Z,8.23
2023-05-04T02:52:39.079Z,8.16
2023-05-04T02:55:06.751Z,8.19
2023-05-04T02:57:33.765Z,8.13
2023-05-04T03:00:00.485Z,8.06
2023-05-04T03:02:27.267Z,8.00
2023-05-04T03:04:54.026Z,8.01
2023-05-04T03:07:20.822Z,8.01
2023-05-04T03:09:48.036Z,7.99
2023-05-04T03:12:14.855Z,8.04
2023-05-04T03:14:42.460Z,8.03
2023-05-04T03:17:09.101Z,8.02
2023-05-04T03:19:36.685Z,8.03
2023-05-04T03:22:04.176Z,8.00
2023-05-04T03:24:30.991Z,7.95
2023-05-04T03:26:57.802Z,7.84
2023-05-04T03:29:24.887Z,7.87
2023-05-04T03:31:52.359Z,7.89
2023-05-04T03:34:21.719Z,7.80
2023-05-04T03:36:53.175Z,7.74
2023-05-04T03:39:19.803Z,7.67
2023-05-04T03:41:46.635Z,7.71
2023-05-04T03:44:13.444Z,7.73
2023-05-04T03:46:40.289Z,7.60
2023-05-04T03:49:07.047Z,7.55
2023-05-04T03:51:33.704Z,7.55
2023-05-04T03:54:01.482Z,7.51
2023-05-04T03:56:28.340Z,7.47
2023-05-04T03:58:57.072Z,7.37
2023-05-04T04:01:27.603Z,7.40
2023-05-04T04:03:54.517Z,7.44
2023-05-04T04:06:22.549Z,7.46
2023-05-04T04:08:49.353Z,7.40
2023-05-04T04:11:16.056Z,7.40
2023-05-04T04:13:42.702Z,7.37
2023-05-04T04:16:09.401Z,7.36
2023-05-04T04:18:36.105Z,7.39
2023-05-04T04:21:03.513Z,7.36
2023-05-04T04:23:30.155Z,7.36
2023-05-04T04:25:56.816Z,7.36
2023-05-04T04:28:23.488Z,7.23
2023-05-04T04:30:50.117Z,7.31
2023-05-04T04:33:17.117Z,7.32
2023-05-04T04:35:43.966Z,7.37
2023-05-04T04:38:10.617Z,7.39
2023-05-04T04:40:37.261Z,7.42
2023-05-04T04:43:04.853Z,7.50
2023-05-04T04:45:33.185Z,7.55
2023-05-04T04:48:01.082Z,7.56
2023-05-04T04:50:29.188Z,7.51
2023-05-04T04:52:56.239Z,7.52
2023-05-04T04:55:25.848Z,7.53
2023-05-04T04:57:53.063Z,7.58
2023-05-04T05:00:19.990Z,7.69
2023-05-04T05:02:46.692Z,7.69
2023-05-04T05:05:13.578Z,7.75
2023-05-04T05:07:40.423Z,7.68
2023-05-04T05:10:08.619Z,7.80
2023-05-04T05:12:35.844Z,7.87
2023-05-04T05:15:04.497Z,8.03
2023-05-04T05:17:31.479Z,8.08
2023-05-04T05:19:58.196Z,8.02
2023-05-04T05:22:25.115Z,8.15
2023-05-04T05:24:51.888Z,8.16
2023-05-04T05:27:18.495Z,8.22
2023-05-04T05:29:45.690Z,8.18
2023-05-04T05:32:12.338Z,8.18
2023-05-04T05:34:39.127Z,8.15
2023-05-04T05:37:05.859Z,8.16
2023-05-04T05:39:32.467Z,8.14
2023-05-04T05:41:59.342Z,8.29
2023-05-04T05:44:26.169Z,8.34
2023-05-04T05:46:52.768Z,8.43
2023-05-04T05:49:19.469Z,8.49
2023-05-04T05:51:46.217Z,8.57
2023-05-04T05:54:12.946Z,8.60
2023-05-04T05:56:39.584Z,8.74
2023-05-04T05:59:06.509Z,8.66
2023-05-04T06:01:33.333Z,8.72
2023-05-04T06:04:00.334Z,8.67
2023-05-04T06:06:27.243Z,8.76
2023-05-04T06:08:53.849Z,8.93
2023-05-04T06:11:21.313Z,9.06
2023-05-04T06:13:47.952Z,9.00
2023-05-04T06:16:14.770Z,9.12
2023-05-04T06:18:41.516Z,9.12
2023-05-04T06:21:08.838Z,9.28
2023-05-04T06:23:35.507Z,9.30
2023-05-04T06:26:02.501Z,9.43
2023-05-04T06:28:29.103Z,9.77
2023-05-04T06:30:55.757Z,9.83
2023-05-04T06:33:22.410Z,9.88
2023-05-04T06:35:49.122Z,9.63
2023-05-04T06:38:15.815Z,9.55
2023-05-04T06:40:42.472Z,9.66
2023-05-04T06:43:09.131Z,9.80
2023-05-04T06:45:36.420Z,9.87
2023-05-04T06:48:04.300Z,9.98
2023-05-04T06:50:33.123Z,10.02
2023-05-04T06:53:04.499Z,10.22
2023-05-04T06:55:31.805Z,10.48
2023-05-04T06:57:58.558Z,10.59
2023-05-04T07:00:25.661Z,10.56
2023-05-04T07:02:53.695Z,10.48
2023-05-04T07:05:23.913Z,10.69
2023-05-04T07:07:51.382Z,10.80
2023-05-04T07:10:19.583Z,11.07
2023-05-04T07:12:46.990Z,11.18
2023-05-04T07:15:14.063Z,11.25
2023-05-04T07:17:41.086Z,11.33
2023-05-04T07:20:08.501Z,11.51
2023-05-04T07:22:35.418Z,11.61
2023-05-04T07:25:02.242Z,11.72
2023-05-04T07:27:29.013Z,12.04
2023-05-04T07:32:23.317Z,12.31
2023-05-04T07:34:50.180Z,12.22
2023-05-04T07:37:16.944Z,12.23
2023-05-04T07:39:43.705Z,12.34
2023-05-04T07:42:11.727Z,12.64
2023-05-04T07:44:38.449Z,12.61
2023-05-04T07:47:05.425Z,12.92
2023-05-04T07:49:32.085Z,13.01
2023-05-04T07:51:58.939Z,13.20
2023-05-04T07:54:25.808Z,13.25
2023-05-04T07:56:52.420Z,13.33
2023-05-04T07:59:19.130Z,13.44
2023-05-04T08:01:46.557Z,13.52
2023-05-04T08:04:13.452Z,13.54
2023-05-04T08:06:40.460Z,13.54
2023-05-04T08:09:07.106Z,13.91
2023-05-04T08:11:37.909Z,14.09
2023-05-04T08:14:05.272Z,14.24
2023-05-04T08:16:32.421Z,14.29
2023-05-04T08:19:00.069Z,14.53
2023-05-04T08:21:27.377Z,14.38
2023-05-04T08:23:54.450Z,14.24
2023-05-04T08:26:21.201Z,14.42
2023-05-04T08:28:48.461Z,14.38
2023-05-04T08:31:17.002Z,14.47
2023-05-04T08:33:43.753Z,14.36
2023-05-04T08:36:10.813Z,14.50
2023-05-04T08:38:37.494Z,14.53
2023-05-04T08:41:05.223Z,14.47
2023-05-04T08:43:35.835Z,14.32
2023-05-04T08:46:04.025Z,14.39
2023-05-04T08:48:34.887Z,14.85
2023-05-04T08:51:04.372Z,15.24
2023-05-04T08:53:32.785Z,15.35
2023-05-04T08:56:04.217Z,15.71
2023-05-04T08:58:32.985Z,15.28
2023-05-04T09:01:01.567Z,15.26
2023-05-04T09:03:30.339Z,14.99
2023-05-04T09:05:58.349Z,15.26
2023-05-04T09:08:25.101Z,15.55
2023-05-04T09:10:51.819Z,15.91
2023-05-04T09:13:18.651Z,15.86
2023-05-04T09:15:58.884Z,16.38
2023-05-04T09:18:43.991Z,15.92
2023-05-04T09:21:11.712Z,16.10
2023-05-04T09:23:49.263Z,16.43
2023-05-04T09:26:35.155Z,16.21
2023-05-04T09:29:15.400Z,16.38
2023-05-04T09:31:47.378Z,16.86
2023-05-04T09:34:17.202Z,16.94
2023-05-04T09:36:43.936Z,16.67
2023-05-04T09:39:14.869Z,16.71
2023-05-04T09:41:42.702Z,16.53
2023-05-04T09:44:21.379Z,16.33
2023-05-04T09:47:00.489Z,16.56
2023-05-04T09:49:34.699Z,17.42
2023-05-04T09:52:02.973Z,17.69
2023-05-04T09:54:41.274Z,17.91
2023-05-04T09:57:15.562Z,18.41
2023-05-04T09:59:43.514Z,18.21
2023-05-04T10:02:22.150Z,17.98
2023-05-04T10:04:57.290Z,18.08
2023-05-04T10:07:24.925Z,18.07
2023-05-04T10:09:53.301Z,17.72
2023-05-04T10:12:20.007Z,17.65
2023-05-04T10:14:47.234Z,18.01
2023-05-04T10:18:07.440Z,18.36
2023-05-04T10:20:49.357Z,18.53
2023-05-04T10:23:58.193Z,18.81
2023-05-04T10:26:59.527Z,18.60
2023-05-04T10:29:33.316Z,19.00
2023-05-04T10:32:00.698Z,19.32
2023-05-04T10:34:30.111Z,19.06
2023-05-04T10:36:58.224Z,18.36
2023-05-04T10:39:27.976Z,18.47
2023-05-04T10:42:04.093Z,18.63
2023-05-04T10:44:32.869Z,18.47
2023-05-04T10:47:05.573Z,19.13
2023-05-04T10:49:33.980Z,19.40
2023-05-04T10:52:16.254Z,19.05
2023-05-04T10:54:43.681Z,19.00
2023-05-04T10:57:12.633Z,19.31
2023-05-04T10:59:41.321Z,19.42
2023-05-04T11:02:08.501Z,19.24
2023-05-04T11:04:35.820Z,19.67
2023-05-04T11:07:05.499Z,19.64
2023-05-04T11:09:42.627Z,20.04
2023-05-04T11:12:10.805Z,19.60
2023-05-04T11:14:43.270Z,19.86
2023-05-04T11:17:27.555Z,19.57
2023-05-04T11:19:55.246Z,19.80
2023-05-04T11:22:22.116Z,19.60
2023-05-04T11:24:49.114Z,19.88
2023-05-04T11:27:28.578Z,20.23
2023-05-04T11:30:03.571Z,19.78
2023-05-04T11:32:40.769Z,20.02
2023-05-04T11:35:09.599Z,19.93
2023-05-04T11:37:41.347Z,19.54
2023-05-04T11:40:08.838Z,19.65
2023-05-04T11:42:36.363Z,20.45
2023-05-04T11:45:03.626Z,20.46
2023-05-04T11:47:30.605Z,20.27
2023-05-04T11:49:57.292Z,20.10
2023-05-04T11:52:25.798Z,19.87
2023-05-04T11:54:57.292Z,19.79
2023-05-04T11:57:24.009Z,19.44
2023-05-04T11:59:50.910Z,19.42
2023-05-04T12:02:18.202Z,19.58
2023-05-04T12:04:44.872Z,19.72
2023-05-04T12:07:12.691Z,20.11
2023-05-04T12:09:49.461Z,20.51
2023-05-04T12:12:21.328Z,20.93
2023-05-04T12:14:52.082Z,20.47
2023-05-04T12:17:20.566Z,19.63
2023-05-04T12:19:55.370Z,19.70
2023-05-04T12:22:29.470Z,19.91
2023-05-04T12:24:58.749Z,20.07
2023-05-04T12:27:28.991Z,19.79
2023-05-04T12:29:55.830Z,19.76
2023-05-04T12:32:22.522Z,20.12
2023-05-04T12:34:49.388Z,20.46
2023-05-04T12:37:16.225Z,20.02
2023-05-04T12:39:43.052Z,19.65
2023-05-04T12:42:09.741Z,20.06
2023-05-04T12:44:36.447Z,20.08
2023-05-04T12:47:03.382Z,20.45
2023-05-04T12:49:29.990Z,20.19
2023-05-04T12:51:56.684Z,20.55
2023-05-04T12:54:23.402Z,21.03
2023-05-04T12:56:50.029Z,20.95
2023-05-04T12:59:16.718Z,20.79
2023-05-04T13:01:43.463Z,20.33
2023-05-04T13:04:10.283Z,20.08
2023-05-04T13:06:37.003Z,20.26
2023-05-04T13:09:06.000Z,20.78
2023-05-04T13:11:32.856Z,20.96
2023-05-04T13:13:59.765Z,20.85
2023-05-04T13:16:28.180Z,21.16
2023-05-04T13:18:55.596Z,20.71
2023-05-04T13:21:22.508Z,20.08
2023-05-04T13:23:49.451Z,20.57
2023-05-04T13:26:16.184Z,20.96
2023-05-04T13:28:43.178Z,21.14
2023-05-04T13:31:10.533Z,20.95
2023-05-04T13:33:40.276Z,20.49
2023-05-04T13:36:07.207Z,20.59
2023-05-04T13:38:33.858Z,20.59
2023-05-04T13:41:00.560Z,20.48
2023-05-04T13:43:27.983Z,20.80
2023-05-04T13:45:57.065Z,20.86
2023-05-04T13:48:25.757Z,21.15
2023-05-04T13:50:52.785Z,20.50
2023-05-04T13:53:19.449Z,20.59
2023-05-04T13:55:46.693Z,20.82
2023-05-04T13:58:13.357Z,20.72
2023-05-04T14:00:40.133Z,20.69
2023-05-04T14:03:06.937Z,21.06
2023-05-04T14:05:35.601Z,21.10
2023-05-04T14:08:02.927Z,21.08
2023-05-04T14:10:29.599Z,21.10
2023-05-04T14:12:56.410Z,20.85
2023-05-04T14:15:23.249Z,20.83
2023-05-04T14:17:50.442Z,20.62
2023-05-04T14:20:17.349Z,20.76
2023-05-04T14:22:44.392Z,20.71
2023-05-04T14:25:11.286Z,20.82
2023-05-04T14:27:37.974Z,20.92
2023-05-04T14:30:05.262Z,20.92
2023-05-04T14:32:32.008Z,21.13
2023-05-04T14:35:10.240Z,21.40
2023-05-04T14:37:39.607Z,21.30
2023-05-04T14:40:13.304Z,20.99
2023-05-04T14:42:39.934Z,20.98
2023-05-04T14:45:08.304Z,20.97
2023-05-04T14:47:35.471Z,20.82
2023-05-04T14:50:02.364Z,20.88
2023-05-04T14:52:29.159Z,20.80
2023-05-04T14:54:56.204Z,20.83
2023-05-04T14:57:22.966Z,20.59
2023-05-04T14:59:49.590Z,20.41
2023-05-04T15:02:17.685Z,20.19
2023-05-04T15:04:45.295Z,19.93
2023-05-04T15:07:14.375Z,19.86
2023-05-04T15:09:41.041Z,19.80
2023-05-04T15:12:08.722Z,19.86
2023-05-04T15:14:38.712Z,19.97
2023-05-04T15:17:05.461Z,19.82
2023-05-04T15:19:32.125Z,19.84
2023-05-04T15:21:58.751Z,19.96
2023-05-04T15:24:25.492Z,19.89
2023-05-04T15:26:52.182Z,19.91
2023-05-04T15:29:18.873Z,19.95
2023-05-04T15:31:45.683Z,19.78
2023-05-04T15:34:12.409Z,20.05
2023-05-04T15:36:39.059Z,20.19
2023-05-04T15:39:08.189Z,20.08
2023-05-04T15:41:35.620Z,20.04
2023-05-04T15:44:03.078Z,19.93
2023-05-04T15:46:29.785Z,20.07
2023-05-04T15:48:56.536Z,20.20
2023-05-04T15:51:23.218Z,19.91
2023-05-04T15:53:51.771Z,19.63
2023-05-04T15:56:18.488Z,19.59
2023-05-04T15:58:45.340Z,19.69
2023-05-04T16:01:14.582Z,19.66
2023-05-04T16:03:43.376Z,19.65
2023-05-04T16:06:10.139Z,19.53
2023-05-04T16:08:36.998Z,19.59
2023-05-04T16:11:04.480Z,19.70
2023-05-04T16:13:31.433Z,19.71
2023-05-04T16:15:58.169Z,19.58
2023-05-04T16:18:24.807Z,19.32
2023-05-04T16:20:51.676Z,19.30
2023-05-04T16:23:18.273Z,19.47
2023-05-04T16:25:44.960Z,19.40
2023-05-04T16:28:11.758Z,19.26
2023-05-04T16:30:38.507Z,19.17
2023-05-04T16:33:05.486Z,19.11
2023-05-04T16:35:32.288Z,19.06
2023-05-04T16:37:59.283Z,18.97
2023-05-04T16:40:26.696Z,19.00
2023-05-04T16:42:53.362Z,19.03
2023-05-04T16:45:20.597Z,19.04
2023-05-04T16:47:47.341Z,18.91
2023-05-04T16:50:14.474Z,18.89
2023-05-04T16:52:41.666Z,18.84
2023-05-04T16:55:11.796Z,18.84
2023-05-04T16:57:39.168Z,18.84
2023-05-04T17:00:07.090Z,18.77
2023-05-04T17:02:34.245Z,18.66
2023-05-04T17:05:01.185Z,18.59
2023-05-04T17:07:28.512Z,18.61
2023-05-04T17:09:55.190Z,18.62
2023-05-04T17:12:23.387Z,18.52
2023-05-04T17:14:50.204Z,18.44
2023-05-04T17:17:17.097Z,18.41
2023-05-04T17:19:43.727Z,18.34
2023-05-04T17:22:11.256Z,18.32
2023-05-04T17:24:38.056Z,18.36
2023-05-04T17:27:04.787Z,18.32
2023-05-04T17:29:31.568Z,18.31
2023-05-04T17:31:58.295Z,18.24
2023-05-04T17:34:25.107Z,18.19
2023-05-04T17:36:51.853Z,18.17
2023-05-04T17:39:18.819Z,18.06
2023-05-04T17:41:49.061Z,17.97
2023-05-04T17:44:16.454Z,17.89
2023-05-04T17:46:43.732Z,17.85
2023-05-04T17:49:10.686Z,17.80
2023-05-04T17:51:37.461Z,17.67
2023-05-04T17:54:04.107Z,17.63
2023-05-04T17:56:30.779Z,17.57
2023-05-04T17:58:57.469Z,17.51
2023-05-04T18:01:24.175Z,17.38
2023-05-04T18:03:50.989Z,17.34
2023-05-04T18:06:17.717Z,17.27
2023-05-04T18:08:44.508Z,17.19
2023-05-04T18:11:12.072Z,17.12
2023-05-04T18:13:38.712Z,17.10
2023-05-04T18:16:05.630Z,17.03
2023-05-04T18:18:32.290Z,17.01
2023-05-04T18:21:00.753Z,16.90
2023-05-04T18:23:27.489Z,16.86
2023-05-04T18:25:54.142Z,16.81
2023-05-04T18:28:20.774Z,16.70
2023-05-04T18:30:47.610Z,16.62
2023-05-04T18:33:14.258Z,16.57
2023-05-04T18:35:41.023Z,16.49
2023-05-04T18:38:07.691Z,16.41
2023-05-04T18:40:34.357Z,16.31
2023-05-04T18:43:00.958Z,16.24
2023-05-04T18:45:27.994Z,16.18
2023-05-04T18:47:54.764Z,16.05
2023-05-04T18:50:21.569Z,15.98
2023-05-04T18:52:48.188Z,15.96
2023-05-04T18:55:14.842Z,15.93
2023-05-04T18:57:41.568Z,15.89
2023-05-04T19:00:09.385Z,15.83
2023-05-04T19:02:36.793Z,15.80
2023-05-04T19:05:03.671Z,15.74
2023-05-04T19:07:30.348Z,15.67
2023-05-04T19:09:56.984Z,15.64
2023-05-04T19:12:23.996Z,15.54
2023-05-04T19:14:51.230Z,15.54
2023-05-04T19:17:18.615Z,15.53
2023-05-04T19:19:45.350Z,15.53
2023-05-04T19:22:13.388Z,15.51
2023-05-04T19:24:40.045Z,15.51
2023-05-04T19:27:07.410Z,15.50
2023-05-04T19:29:34.169Z,15.42
2023-05-04T19:32:05.676Z,15.40
2023-05-04T19:34:35.411Z,15.41
2023-05-04T19:37:02.192Z,15.35
2023-05-04T19:39:29.438Z,15.34
2023-05-04T19:41:56.104Z,15.33
2023-05-04T19:44:22.831Z,15.29
2023-05-04T19:46:51.625Z,15.26
2023-05-04T19:49:18.368Z,15.24
2023-05-04T19:51:44.971Z,15.17
2023-05-04T19:54:11.857Z,15.13
2023-05-04T19:56:38.511Z,15.05
2023-05-04T19:59:05.249Z,15.01
2023-05-04T20:01:31.867Z,14.97
2023-05-04T20:03:58.506Z,14.95
2023-05-04T20:06:25.127Z,14.92
2023-05-04T20:08:51.840Z,14.88
2023-05-04T20:11:18.587Z,14.84
2023-05-04T20:13:45.598Z,14.80
2023-05-04T20:16:13.144Z,14.75
2023-05-04T20:18:39.856Z,14.71
2023-05-04T20:21:06.640Z,14.66
2023-05-04T20:23:33.280Z,14.62
2023-05-04T20:25:59.969Z,14.62
2023-05-04T20:28:26.688Z,14.60
2023-05-04T20:30:53.334Z,14.59
2023-05-04T20:33:19.983Z,14.62
2023-05-04T20:35:46.618Z,14.63
2023-05-04T20:38:13.603Z,14.60
2023-05-04T20:40:40.230Z,14.56
2023-05-04T20:43:06.838Z,14.52
2023-05-04T20:45:34.304Z,14.51
2023-05-04T20:48:01.379Z,14.47
2023-05-04T20:50:28.020Z,14.40
2023-05-04T20:52:54.784Z,14.39
2023-05-04T20:55:21.537Z,14.32
2023-05-04T20:57:48.261Z,14.31
2023-05-04T21:00:15.355Z,14.33
2023-05-04T21:02:42.620Z,14.34
2023-05-04T21:05:09.506Z,14.33
2023-05-04T21:07:36.331Z,14.34
2023-05-04T21:10:03.666Z,14.31
2023-05-04T21:12:30.378Z,14.25
2023-05-04T21:14:57.097Z,14.24
2023-05-04T21:17:25.556Z,14.23
2023-05-04T21:19:52.264Z,14.21
2023-05-04T21:22:18.936Z,14.08
2023-05-04T21:24:46.692Z,13.94
2023-05-04T21:27:14.078Z,13.79
2023-05-04T21:29:40.760Z,13.64
2023-05-04T21:32:07.406Z,13.53
2023-05-04T21:34:34.102Z,13.54
2023-05-04T21:37:00.882Z,13.48
2023-05-04T21:39:27.506Z,13.47
2023-05-04T21:41:54.203Z,13.47
2023-05-04T21:44:20.813Z,13.44
2023-05-04T21:46:47.462Z,13.35
2023-05-04T21:49:14.218Z,13.25
2023-05-04T21:51:42.626Z,13.19
2023-05-04T21:54:09.239Z,13.05
2023-05-04T21:56:35.917Z,12.93
2023-05-04T21:59:03.118Z,12.85
2023-05-04T22:01:29.826Z,12.74
2023-05-04T22:03:56.834Z,12.70
2023-05-04T22:06:24.694Z,12.65
2023-05-04T22:08:51.717Z,12.67
2023-05-04T22:11:18.595Z,12.73
2023-05-04T22:13:45.292Z,12.74
2023-05-04T22:16:12.158Z,12.66
2023-05-04T22:18:38.817Z,12.62
2023-05-04T22:21:05.684Z,12.51
2023-05-04T22:23:32.697Z,12.37
2023-05-04T22:25:59.375Z,12.27
2023-05-04T22:28:26.420Z,12.15
2023-05-04T22:30:53.160Z,12.06
2023-05-04T22:33:20.017Z,12.02
2023-05-04T22:35:46.742Z,12.05
2023-05-04T22:38:14.649Z,12.03
2023-05-04T22:40:43.021Z,12.01
2023-05-04T22:43:11.788Z,11.95
2023-05-04T22:45:39.098Z,11.86
2023-05-04T22:48:05.854Z,11.75
2023-05-04T22:50:32.644Z,11.66
2023-05-04T22:52:59.346Z,11.60
2023-05-04T22:55:26.053Z,11.52
2023-05-04T22:57:52.785Z,11.54
2023-05-04T23:00:20.144Z,11.56
2023-05-04T23:02:47.235Z,11.56
2023-05-04T23:05:13.935Z,11.56
2023-05-04T23:07:40.883Z,11.57
2023-05-04T23:10:08.187Z,11.61
2023-05-04T23:12:35.054Z,11.59
2023-05-04T23:15:01.839Z,11.58
2023-05-04T23:17:28.530Z,11.57
2023-05-04T23:19:55.198Z,11.58
2023-05-04T23:22:21.845Z,11.59
2023-05-04T23:24:48.525Z,11.53
2023-05-04T23:27:15.240Z,11.51
2023-05-04T23:29:41.875Z,11.52
2023-05-04T23:32:08.647Z,11.53
2023-05-04T23:34:35.278Z,11.48
2023-05-04T23:37:01.977Z,11.46
2023-05-04T23:39:28.819Z,11.49
2023-05-04T23:41:55.581Z,11.56
2023-05-04T23:44:22.464Z,11.56
2023-05-04T23:46:49.220Z,11.46
2023-05-04T23:49:16.542Z,11.45
2023-05-04T23:51:43.678Z,11.40
2023-05-04T23:54:10.571Z,11.36
2023-05-04T23:56:37.203Z,11.36
2023-05-04T23:59:04.016Z,11.35
